Time;durP1;ratioP1;P1;durP2;ratioP2;P2;SDS_P1;SDS_P2;PMS_P1;PMS_P2;Temp;Humidity;BMP_temperature;BMP_pressure;BME280_temperature;BME280_humidity;BME280_pressure;Samples;Min_cycle;Max_cycle;Signal;HPM_P1;HPM_P2
2021/12/12 00:02:17;;;;;;;;;;;5.10;61.40;;;;;;4986830;28;19913;-65
2021/12/12 00:04:46;;;;;;;;;;;5.10;61.00;;;;;;4987093;28;19906;-66
2021/12/12 00:07:12;;;;;;;;;;;5.20;60.80;;;;;;4983892;28;19941;-69
2021/12/12 00:09:43;;;;;;;;;;;5.30;60.30;;;;;;4983063;28;19933;-67
2021/12/12 00:12:11;;;;;;;;;;;5.30;60.20;;;;;;4979856;28;19980;-66
2021/12/12 00:14:36;;;;;;;;;;;5.30;60.00;;;;;;4977410;28;19965;-64
2021/12/12 00:17:04;;;;;;;;;;;5.20;60.40;;;;;;4977289;28;19906;-65
2021/12/12 00:19:29;;;;;;;;;;;5.20;60.50;;;;;;4977206;28;19932;-65
2021/12/12 00:21:56;;;;;;;;;;;5.20;59.80;;;;;;4977489;28;20354;-70
2021/12/12 00:24:23;;;;;;;;;;;5.10;60.20;;;;;;4977103;28;19906;-65
2021/12/12 00:26:51;;;;;;;;;;;5.10;60.70;;;;;;4977507;28;19914;-65
2021/12/12 00:29:17;;;;;;;;;;;5.00;61.30;;;;;;4977219;28;19981;-67
2021/12/12 00:31:44;;;;;;;;;;;5.00;61.10;;;;;;4976877;28;20305;-68
2021/12/12 00:34:10;;;;;;;;;;;5.00;60.50;;;;;;4977221;28;19906;-59
2021/12/12 00:36:38;;;;;;;;;;;5.10;59.70;;;;;;4977197;28;19929;-60
2021/12/12 00:39:07;;;;;;;;;;;5.10;60.20;;;;;;4977256;28;19948;-60
2021/12/12 00:41:42;;;;;;;;;;;5.20;59.70;;;;;;4977608;28;19945;-65
2021/12/12 00:44:08;;;;;;;;;;;5.10;60.10;;;;;;4978929;28;19945;-61
2021/12/12 00:46:34;;;;;;;;;;;5.10;59.90;;;;;;4978852;28;19913;-64
2021/12/12 00:49:00;;;;;;;;;;;5.20;60.00;;;;;;4977803;28;20286;-63
2021/12/12 00:51:29;;;;;;;;;;;5.10;60.50;;;;;;4977616;28;20295;-65
2021/12/12 00:53:55;;;;;;;;;;;5.10;60.40;;;;;;4978656;28;19910;-68
2021/12/12 00:56:20;;;;;;;;;;;5.00;60.50;;;;;;4978320;28;19906;-63
2021/12/12 00:58:46;;;;;;;;;;;5.00;60.60;;;;;;4976583;28;19917;-69
2021/12/12 01:01:14;;;;;;;;;;;5.10;60.70;;;;;;4976553;28;19906;-66
2021/12/12 01:03:42;;;;;;;;;;;5.00;60.80;;;;;;4976317;28;19906;-71
2021/12/12 01:06:09;;;;;;;;;;;5.00;61.10;;;;;;4976194;28;20374;-66
2021/12/12 01:08:34;;;;;;;;;;;5.00;60.60;;;;;;4976949;28;20009;-67
2021/12/12 01:11:04;;;;;;;;;;;5.00;60.90;;;;;;4977762;28;19957;-62
2021/12/12 01:13:30;;;;;;;;;;;4.90;61.30;;;;;;4976894;28;19906;-66
2021/12/12 01:16:19;;;;;;;;;;;5.00;61.10;;;;;;4976212;28;19906;-72
2021/12/12 01:18:47;;;;;;;;;;;4.90;61.20;;;;;;4968313;28;19956;-69
2021/12/12 01:21:16;;;;;;;;;;;5.00;60.80;;;;;;4975873;28;19994;-69
2021/12/12 01:24:03;;;;;;;;;;;4.90;61.40;;;;;;4975944;28;19906;-66
2021/12/12 01:26:29;;;;;;;;;;;4.90;62.20;;;;;;4975669;28;19964;-67
2021/12/12 01:28:55;;;;;;;;;;;4.70;62.60;;;;;;4976016;28;19941;-62
2021/12/12 01:31:25;;;;;;;;;;;4.70;63.50;;;;;;4975746;28;19921;-59
2021/12/12 01:34:08;;;;;;;;;;;4.60;63.60;;;;;;4975875;28;19913;-59
2021/12/12 01:37:34;;;;;;;;;;;4.50;64.00;;;;;;4975504;28;19948;-60
2021/12/12 01:39:22;;;;;;;;;;;4.60;62.70;;;;;;4961938;28;20060;-67
2021/12/12 01:41:55;;;;;;;;;;;4.80;61.50;;;;;;4974455;28;19917;-60
2021/12/12 01:44:25;;;;;;;;;;;5.00;61.00;;;;;;4975471;28;20042;-62
2021/12/12 01:47:01;;;;;;;;;;;5.00;60.90;;;;;;4975536;28;19906;-60
2021/12/12 01:49:28;;;;;;;;;;;5.00;61.50;;;;;;4975332;28;19965;-59
2021/12/12 01:51:54;;;;;;;;;;;5.10;60.70;;;;;;4975475;28;19929;-60
2021/12/12 01:54:22;;;;;;;;;;;5.00;61.00;;;;;;4975468;28;19906;-59
2021/12/12 01:56:53;;;;;;;;;;;4.90;61.30;;;;;;4975271;28;19910;-60
2021/12/12 01:59:25;;;;;;;;;;;4.90;61.70;;;;;;4975255;28;20008;-60
2021/12/12 02:01:58;;;;;;;;;;;4.70;62.40;;;;;;4975225;28;19906;-60
2021/12/12 02:04:26;;;;;;;;;;;4.80;61.60;;;;;;4974929;28;20027;-59
2021/12/12 02:06:52;;;;;;;;;;;4.90;61.10;;;;;;4975099;28;19906;-59
2021/12/12 02:09:19;;;;;;;;;;;5.00;60.20;;;;;;4975311;28;19925;-59
2021/12/12 02:11:46;;;;;;;;;;;5.00;59.80;;;;;;4974982;28;20357;-59
2021/12/12 02:14:14;;;;;;;;;;;5.00;59.60;;;;;;4975109;28;19906;-61
2021/12/12 02:16:42;;;;;;;;;;;5.10;59.50;;;;;;4975186;28;19906;-65
2021/12/12 02:19:09;;;;;;;;;;;5.10;59.30;;;;;;4975015;28;19917;-59
2021/12/12 02:21:47;;;;;;;;;;;5.10;59.70;;;;;;4974796;28;20273;-61
2021/12/12 02:35:43;;;;;;;;;;;4.80;60.30;;;;;;4975136;28;19974;-59
2021/12/12 02:37:59;;;;;;;;;;;4.90;60.00;;;;;;4972620;28;19954;-59
2021/12/12 02:40:24;;;;;;;;;;;4.90;60.10;;;;;;4974542;28;19955;-59
2021/12/12 02:42:50;;;;;;;;;;;5.00;59.80;;;;;;4974574;28;19913;-60
2021/12/12 02:45:18;;;;;;;;;;;4.80;60.20;;;;;;4974726;28;19998;-65
2021/12/12 02:47:45;;;;;;;;;;;4.80;60.00;;;;;;4973142;28;19906;-71
2021/12/12 02:50:16;;;;;;;;;;;4.80;60.00;;;;;;4974520;28;19965;-71
2021/12/12 02:52:44;;;;;;;;;;;4.90;60.00;;;;;;4974412;28;20358;-66
2021/12/12 02:55:18;;;;;;;;;;;4.90;59.60;;;;;;4974549;28;20421;-68
2021/12/12 02:57:43;;;;;;;;;;;5.00;59.10;;;;;;4974190;28;19910;-74
2021/12/12 03:00:12;;;;;;;;;;;5.00;58.80;;;;;;4974544;28;19913;-67
2021/12/12 03:02:45;;;;;;;;;;;5.10;58.50;;;;;;4974268;28;19972;-67
2021/12/12 03:05:12;;;;;;;;;;;5.10;58.50;;;;;;4974631;28;19910;-71
2021/12/12 03:07:37;;;;;;;;;;;5.00;58.50;;;;;;4974218;28;19922;-60
2021/12/12 03:10:04;;;;;;;;;;;5.10;58.20;;;;;;4974102;28;20285;-59
2021/12/12 03:12:33;;;;;;;;;;;5.10;58.50;;;;;;4974269;28;19907;-59
2021/12/12 03:15:02;;;;;;;;;;;5.10;58.60;;;;;;4975237;28;19992;-59
2021/12/12 03:17:27;;;;;;;;;;;5.10;58.60;;;;;;4977277;28;20270;-59
2021/12/12 03:19:56;;;;;;;;;;;5.10;58.40;;;;;;4978321;28;19912;-59
2021/12/12 03:22:22;;;;;;;;;;;5.10;58.20;;;;;;4978094;28;19906;-60
2021/12/12 03:24:48;;;;;;;;;;;5.20;58.90;;;;;;4978089;28;19917;-60
2021/12/12 03:27:15;;;;;;;;;;;5.20;58.20;;;;;;4978030;28;19906;-59
2021/12/12 03:29:41;;;;;;;;;;;5.00;58.70;;;;;;4978146;28;19906;-59
2021/12/12 03:32:09;;;;;;;;;;;4.90;58.90;;;;;;4978008;28;19942;-59
2021/12/12 03:34:36;;;;;;;;;;;4.80;59.50;;;;;;4977862;28;20362;-59
2021/12/12 03:37:03;;;;;;;;;;;4.90;59.60;;;;;;4978013;28;20251;-60
2021/12/12 03:39:31;;;;;;;;;;;4.80;59.70;;;;;;4977810;28;19906;-59
2021/12/12 03:41:58;;;;;;;;;;;4.80;59.60;;;;;;4978013;28;20338;-59
2021/12/12 03:44:25;;;;;;;;;;;4.70;60.00;;;;;;4978015;28;19906;-60
2021/12/12 03:46:53;;;;;;;;;;;4.70;59.90;;;;;;4977636;28;19910;-59
2021/12/12 03:49:19;;;;;;;;;;;4.70;60.00;;;;;;4985430;28;19922;-59
2021/12/12 03:51:45;;;;;;;;;;;4.70;59.80;;;;;;4987468;28;19914;-59
2021/12/12 03:54:11;;;;;;;;;;;4.80;59.90;;;;;;4977600;28;20004;-59
2021/12/12 03:56:38;;;;;;;;;;;4.90;59.70;;;;;;4977628;28;20005;-59
2021/12/12 03:59:04;;;;;;;;;;;4.80;59.40;;;;;;4977493;28;19906;-59
2021/12/12 04:01:34;;;;;;;;;;;4.80;59.30;;;;;;4977371;28;19930;-60
2021/12/12 04:04:09;;;;;;;;;;;4.80;59.00;;;;;;4977447;28;19913;-59
2021/12/12 04:06:34;;;;;;;;;;;4.90;58.90;;;;;;4977419;28;19942;-61
2021/12/12 04:09:00;;;;;;;;;;;4.90;58.40;;;;;;4977216;28;20028;-59
2021/12/12 04:11:31;;;;;;;;;;;5.00;58.00;;;;;;4977073;28;19921;-61
2021/12/12 04:13:57;;;;;;;;;;;5.00;57.80;;;;;;4977536;28;19912;-59
2021/12/12 04:16:24;;;;;;;;;;;5.00;58.10;;;;;;4980798;28;19906;-62
2021/12/12 04:18:50;;;;;;;;;;;5.00;57.50;;;;;;4984010;28;19949;-64
2021/12/12 04:21:17;;;;;;;;;;;5.10;57.80;;;;;;4982849;28;19913;-65
2021/12/12 04:23:43;;;;;;;;;;;5.10;57.60;;;;;;4980515;28;19906;-70
2021/12/12 04:26:22;;;;;;;;;;;5.10;57.40;;;;;;4981161;28;19906;-69
2021/12/12 04:29:14;;;;;;;;;;;5.10;57.40;;;;;;4989314;28;19968;-60
2021/12/12 04:31:42;;;;;;;;;;;5.20;57.10;;;;;;4973961;28;19969;-72
2021/12/12 04:34:08;;;;;;;;;;;5.20;56.80;;;;;;4977124;28;19956;-73
2021/12/12 04:36:35;;;;;;;;;;;5.30;56.50;;;;;;4976922;28;19906;-65
2021/12/12 04:39:25;;;;;;;;;;;5.30;56.10;;;;;;4976856;28;19913;-68
2021/12/12 04:41:54;;;;;;;;;;;5.40;55.40;;;;;;4968953;28;20358;-66
2021/12/12 04:44:21;;;;;;;;;;;5.40;55.20;;;;;;4976790;28;20033;-59
2021/12/12 04:49:56;;;;;;;;;;;5.30;55.80;;;;;;4976519;28;20298;-64
2021/12/12 04:52:25;;;;;;;;;;;5.30;56.20;;;;;;4977018;28;20012;-67
2021/12/12 04:54:59;;;;;;;;;;;5.20;56.50;;;;;;4976476;28;19992;-70
2021/12/12 04:57:29;;;;;;;;;;;5.20;56.70;;;;;;4976676;28;19976;-70
2021/12/12 05:00:21;;;;;;;;;;;5.10;56.80;;;;;;4976589;28;19906;-67
2021/12/12 05:02:52;;;;;;;;;;;5.00;57.00;;;;;;4973319;28;19914;-74
2021/12/12 05:05:50;;;;;;;;;;;5.00;57.30;;;;;;4976239;28;20361;-69
2021/12/12 05:08:27;;;;;;;;;;;5.10;56.90;;;;;;4943630;28;20336;-69
2021/12/12 05:10:55;;;;;;;;;;;5.20;56.70;;;;;;4976030;28;19910;-67
2021/12/12 05:13:24;;;;;;;;;;;5.20;56.30;;;;;;4976354;28;19910;-69
2021/12/12 05:15:52;;;;;;;;;;;5.30;56.10;;;;;;4976358;28;20294;-65
2021/12/12 05:18:31;;;;;;;;;;;5.30;56.20;;;;;;4976202;28;19910;-67
2021/12/12 05:21:24;;;;;;;;;;;5.20;56.20;;;;;;4976077;28;20389;-71
2021/12/12 05:23:51;;;;;;;;;;;5.20;56.50;;;;;;4973130;28;19906;-69
2021/12/12 05:26:21;;;;;;;;;;;5.30;56.40;;;;;;4976188;28;19906;-63
2021/12/12 05:28:49;;;;;;;;;;;5.10;56.40;;;;;;4975969;28;19959;-66
2021/12/12 05:31:16;;;;;;;;;;;5.10;56.70;;;;;;4975792;28;20362;-68
2021/12/12 05:33:42;;;;;;;;;;;5.00;57.00;;;;;;4975751;28;19913;-70
2021/12/12 05:36:09;;;;;;;;;;;4.90;57.20;;;;;;4975816;28;19910;-67
2021/12/12 05:38:35;;;;;;;;;;;4.90;57.40;;;;;;4975156;28;19906;-70
2021/12/12 05:41:01;;;;;;;;;;;4.70;57.80;;;;;;4975528;28;20389;-65
2021/12/12 05:43:28;;;;;;;;;;;4.70;58.10;;;;;;4975823;28;19961;-60
2021/12/12 05:45:53;;;;;;;;;;;4.70;58.20;;;;;;4975466;28;19913;-60
2021/12/12 05:48:20;;;;;;;;;;;4.70;58.30;;;;;;4975516;28;19914;-59
2021/12/12 05:50:46;;;;;;;;;;;4.60;58.70;;;;;;4975723;28;19918;-61
2021/12/12 05:53:12;;;;;;;;;;;4.70;59.20;;;;;;4975867;28;19912;-59
2021/12/12 05:55:40;;;;;;;;;;;4.60;59.30;;;;;;4979776;28;19909;-62
2021/12/12 05:58:07;;;;;;;;;;;4.40;60.20;;;;;;4980020;28;19905;-66
2021/12/12 06:00:35;;;;;;;;;;;4.10;61.90;;;;;;4980507;28;19913;-71
2021/12/12 06:03:01;;;;;;;;;;;4.00;62.40;;;;;;4977613;28;19906;-72
2021/12/12 06:05:27;;;;;;;;;;;3.90;62.60;;;;;;4975524;28;20005;-66
2021/12/12 06:07:57;;;;;;;;;;;4.00;62.60;;;;;;4975274;28;19906;-70
2021/12/12 06:10:23;;;;;;;;;;;3.70;63.80;;;;;;4975147;28;19910;-61
2021/12/12 06:12:50;;;;;;;;;;;3.80;64.10;;;;;;4975227;28;19933;-69
2021/12/12 06:15:17;;;;;;;;;;;3.80;64.40;;;;;;4975206;28;19992;-71
2021/12/12 06:17:44;;;;;;;;;;;3.90;63.70;;;;;;4975240;28;19913;-70
2021/12/12 06:20:11;;;;;;;;;;;3.90;63.20;;;;;;4975525;28;20243;-67
2021/12/12 06:22:37;;;;;;;;;;;4.20;61.10;;;;;;4974913;28;19906;-60
2021/12/12 06:25:04;;;;;;;;;;;4.20;61.70;;;;;;4974829;28;20286;-59
2021/12/12 06:27:30;;;;;;;;;;;4.20;59.80;;;;;;4974864;28;19906;-59
2021/12/12 06:29:55;;;;;;;;;;;4.80;53.60;;;;;;4974922;28;19906;-60
2021/12/12 06:32:21;;;;;;;;;;;5.20;51.00;;;;;;4974653;28;19969;-60
2021/12/12 06:34:51;;;;;;;;;;;5.50;49.40;;;;;;4974757;28;19906;-60
2021/12/12 06:37:17;;;;;;;;;;;5.80;48.10;;;;;;4974845;28;19906;-60
2021/12/12 06:39:43;;;;;;;;;;;6.00;47.80;;;;;;4974674;28;19913;-59
2021/12/12 06:42:09;;;;;;;;;;;5.90;49.90;;;;;;4974708;28;19945;-59
2021/12/12 06:44:36;;;;;;;;;;;5.90;50.20;;;;;;4974557;28;19910;-62
2021/12/12 06:47:02;;;;;;;;;;;5.80;49.60;;;;;;4974353;28;19949;-66
2021/12/12 06:49:28;;;;;;;;;;;5.80;48.90;;;;;;4973334;28;20013;-65
2021/12/12 06:51:56;;;;;;;;;;;5.90;48.60;;;;;;4974312;28;20021;-60
2021/12/12 06:54:23;;;;;;;;;;;6.10;49.00;;;;;;4974649;28;19949;-64
2021/12/12 06:56:50;;;;;;;;;;;6.20;46.60;;;;;;4974562;28;19910;-60
2021/12/12 06:59:16;;;;;;;;;;;6.20;46.10;;;;;;4974208;28;19917;-66
2021/12/12 07:01:42;;;;;;;;;;;6.30;46.20;;;;;;4956847;28;19989;-60
2021/12/12 07:04:09;;;;;;;;;;;6.40;46.00;;;;;;4974480;28;20348;-59
2021/12/12 07:06:35;;;;;;;;;;;6.30;46.60;;;;;;4974600;28;19906;-60
2021/12/12 07:09:03;;;;;;;;;;;6.40;46.80;;;;;;4974712;28;20081;-67
2021/12/12 07:11:32;;;;;;;;;;;6.40;46.80;;;;;;4974111;28;20389;-60
2021/12/12 07:13:57;;;;;;;;;;;6.40;47.30;;;;;;4974142;28;19914;-59
2021/12/12 07:16:23;;;;;;;;;;;6.40;48.10;;;;;;4974214;28;19954;-62
2021/12/12 07:18:50;;;;;;;;;;;6.40;48.50;;;;;;4974459;28;19953;-60
2021/12/12 07:21:17;;;;;;;;;;;6.20;50.00;;;;;;4973983;28;20270;-65
2021/12/12 07:23:43;;;;;;;;;;;6.30;57.30;;;;;;4974115;28;19961;-60
2021/12/12 07:26:09;;;;;;;;;;;6.30;53.70;;;;;;4992055;28;19952;-62
2021/12/12 07:28:35;;;;;;;;;;;6.80;55.80;;;;;;4992285;28;20030;-62
2021/12/12 07:31:04;;;;;;;;;;;7.10;58.10;;;;;;4992154;28;19992;-60
2021/12/12 07:33:30;;;;;;;;;;;7.50;50.90;;;;;;4992257;28;19960;-61
2021/12/12 07:35:57;;;;;;;;;;;7.00;48.80;;;;;;4993315;28;20397;-59
2021/12/12 07:38:23;;;;;;;;;;;6.90;49.10;;;;;;4993849;28;19906;-65
2021/12/12 07:40:49;;;;;;;;;;;6.70;49.80;;;;;;4975809;28;20031;-59
2021/12/12 07:43:15;;;;;;;;;;;6.50;51.10;;;;;;4993579;28;19961;-58
2021/12/12 07:45:40;;;;;;;;;;;6.50;49.60;;;;;;4993395;28;19957;-60
2021/12/12 07:48:07;;;;;;;;;;;6.50;49.70;;;;;;4993431;28;19918;-58
2021/12/12 07:50:33;;;;;;;;;;;6.70;48.10;;;;;;4993428;28;19917;-59
2021/12/12 07:52:58;;;;;;;;;;;6.80;46.80;;;;;;4993471;28;20008;-58
2021/12/12 07:55:25;;;;;;;;;;;7.00;44.60;;;;;;4993016;28;20273;-59
2021/12/12 07:57:51;;;;;;;;;;;7.20;44.10;;;;;;4992620;28;19953;-56
2021/12/12 08:00:18;;;;;;;;;;;7.40;42.60;;;;;;4991826;28;19905;-58
2021/12/12 08:02:45;;;;;;;;;;;7.60;42.30;;;;;;4978239;28;19992;-56
2021/12/12 08:05:12;;;;;;;;;;;7.80;41.00;;;;;;4995426;28;19910;-59
2021/12/12 08:07:40;;;;;;;;;;;7.90;40.30;;;;;;4995612;28;19981;-57
2021/12/12 08:10:09;;;;;;;;;;;8.00;40.20;;;;;;4996913;28;19913;-59
2021/12/12 08:12:35;;;;;;;;;;;8.00;40.40;;;;;;4996712;28;19932;-59
2021/12/12 08:15:03;;;;;;;;;;;8.10;40.70;;;;;;4996824;28;19909;-57
2021/12/12 08:17:29;;;;;;;;;;;8.10;40.10;;;;;;4996877;28;19916;-55
2021/12/12 08:19:56;;;;;;;;;;;8.20;39.30;;;;;;4990196;28;19910;-56
2021/12/12 08:22:23;;;;;;;;;;;8.40;38.60;;;;;;4976654;28;20275;-56
2021/12/12 08:24:49;;;;;;;;;;;8.30;40.20;;;;;;4976707;28;19949;-55
2021/12/12 08:27:15;;;;;;;;;;;8.20;42.80;;;;;;4982694;28;20278;-58
2021/12/12 08:29:42;;;;;;;;;;;8.00;44.70;;;;;;4980534;28;19996;-57
2021/12/12 08:32:09;;;;;;;;;;;7.80;46.00;;;;;;4981749;28;20013;-56
2021/12/12 08:34:35;;;;;;;;;;;7.80;46.90;;;;;;4994491;28;19910;-58
2021/12/12 08:37:02;;;;;;;;;;;7.90;47.10;;;;;;4987187;28;19957;-58
2021/12/12 08:39:28;;;;;;;;;;;7.70;47.50;;;;;;5006953;28;19912;-57
2021/12/12 08:41:54;;;;;;;;;;;7.50;48.40;;;;;;5000651;28;20297;-60
2021/12/12 08:44:21;;;;;;;;;;;7.60;49.20;;;;;;4995848;28;19910;-57
2021/12/12 08:46:48;;;;;;;;;;;7.80;48.30;;;;;;4996178;28;20281;-56
2021/12/12 08:49:14;;;;;;;;;;;7.90;48.60;;;;;;4993036;28;19921;-57
2021/12/12 08:51:42;;;;;;;;;;;7.90;49.80;;;;;;4995212;28;19914;-57
2021/12/12 08:54:23;;;;;;;;;;;8.00;50.10;;;;;;4995646;28;20253;-57
2021/12/12 08:56:49;;;;;;;;;;;8.20;49.80;;;;;;4993046;28;19933;-58
2021/12/12 08:59:16;;;;;;;;;;;8.20;48.50;;;;;;4995089;28;19949;-57
2021/12/12 09:01:42;;;;;;;;;;;8.30;47.60;;;;;;4995148;28;19921;-61
2021/12/12 09:04:09;;;;;;;;;;;8.40;47.90;;;;;;4995378;28;19905;-57
2021/12/12 09:06:39;;;;;;;;;;;8.20;47.20;;;;;;4995192;28;19906;-59
2021/12/12 09:09:14;;;;;;;;;;;8.40;47.80;;;;;;4992382;28;19984;-60
2021/12/12 09:11:44;;;;;;;;;;;8.50;49.60;;;;;;4994811;28;19914;-61
2021/12/12 09:14:12;;;;;;;;;;;8.50;49.40;;;;;;4991768;28;19945;-58
2021/12/12 09:17:00;;;;;;;;;;;8.40;50.00;;;;;;4992981;28;19906;-58
2021/12/12 09:19:29;;;;;;;;;;;8.40;49.70;;;;;;4993067;28;19906;-58
2021/12/12 09:22:01;;;;;;;;;;;8.40;49.80;;;;;;4992780;28;19905;-59
2021/12/12 09:24:32;;;;;;;;;;;8.60;50.20;;;;;;4993392;28;20318;-59
2021/12/12 09:27:03;;;;;;;;;;;8.60;51.30;;;;;;4994361;28;19914;-58
2021/12/12 09:29:35;;;;;;;;;;;8.70;51.20;;;;;;4993579;28;19914;-58
2021/12/12 09:32:03;;;;;;;;;;;8.60;51.50;;;;;;4993306;28;19952;-59
2021/12/12 09:34:31;;;;;;;;;;;8.70;51.60;;;;;;4991421;28;19914;-58
2021/12/12 09:36:59;;;;;;;;;;;8.60;53.30;;;;;;4991166;28;19913;-58
2021/12/12 09:39:27;;;;;;;;;;;8.50;53.70;;;;;;4994048;28;19910;-57
2021/12/12 09:42:01;;;;;;;;;;;8.50;53.60;;;;;;4995025;28;19941;-57
2021/12/12 09:44:48;;;;;;;;;;;8.60;54.00;;;;;;4995081;28;20376;-57
2021/12/12 09:47:29;;;;;;;;;;;8.60;54.20;;;;;;4995035;28;19927;-59
2021/12/12 09:53:14;;;;;;;;;;;8.60;54.70;;;;;;4994587;28;19964;-62
2021/12/12 09:55:58;;;;;;;;;;;8.50;56.80;;;;;;4993615;28;19917;-57
2021/12/12 09:58:24;;;;;;;;;;;8.60;56.60;;;;;;4993238;28;19980;-58
2021/12/12 10:00:58;;;;;;;;;;;8.70;57.30;;;;;;4969366;28;19906;-63
2021/12/12 10:03:39;;;;;;;;;;;8.80;58.00;;;;;;4993927;28;19906;-55
2021/12/12 10:06:13;;;;;;;;;;;8.80;57.90;;;;;;4994718;28;20255;-61
2021/12/12 10:08:57;;;;;;;;;;;9.00;57.60;;;;;;4994289;28;19921;-56
2021/12/12 10:11:38;;;;;;;;;;;9.00;58.10;;;;;;4993612;28;19914;-57
2021/12/12 10:14:04;;;;;;;;;;;9.10;58.20;;;;;;4972661;28;19910;-56
2021/12/12 10:16:32;;;;;;;;;;;9.30;57.80;;;;;;4975105;28;19906;-56
2021/12/12 10:19:03;;;;;;;;;;;9.50;57.40;;;;;;4993214;28;20000;-61
2021/12/12 10:21:49;;;;;;;;;;;9.70;57.30;;;;;;4992877;28;19909;-57
2021/12/12 10:24:14;;;;;;;;;;;9.70;56.60;;;;;;4953711;28;19953;-57
2021/12/12 10:26:40;;;;;;;;;;;9.70;56.40;;;;;;4994316;28;19906;-59
2021/12/12 10:29:12;;;;;;;;;;;9.90;56.40;;;;;;4994473;28;19945;-56
2021/12/12 10:31:49;;;;;;;;;;;10.00;56.10;;;;;;4994290;28;19920;-59
2021/12/12 10:34:20;;;;;;;;;;;10.00;55.80;;;;;;4994349;28;19912;-55
2021/12/12 10:36:58;;;;;;;;;;;10.20;55.80;;;;;;4993094;28;19941;-60
2021/12/12 10:39:31;;;;;;;;;;;10.40;55.70;;;;;;4993031;28;20416;-59
2021/12/12 10:41:59;;;;;;;;;;;10.00;55.60;;;;;;4992927;28;19906;-60
2021/12/12 10:44:46;;;;;;;;;;;10.00;56.10;;;;;;4992630;28;19906;-60
2021/12/12 10:47:17;;;;;;;;;;;10.00;56.40;;;;;;4992430;28;19960;-60
2021/12/12 10:49:52;;;;;;;;;;;10.20;56.50;;;;;;4975081;28;19918;-58
2021/12/12 10:52:36;;;;;;;;;;;10.40;55.80;;;;;;4974913;28;19978;-59
2021/12/12 10:55:34;;;;;;;;;;;10.50;55.20;;;;;;4992503;28;19906;-62
2021/12/12 10:58:03;;;;;;;;;;;10.40;53.90;;;;;;4951190;28;19906;-61
2021/12/12 11:00:31;;;;;;;;;;;10.50;53.60;;;;;;4973419;28;19972;-60
2021/12/12 11:03:00;;;;;;;;;;;10.60;53.60;;;;;;4973238;28;19916;-60
2021/12/12 11:05:27;;;;;;;;;;;10.70;52.90;;;;;;4973679;28;19997;-62
2021/12/12 11:08:04;;;;;;;;;;;10.80;52.00;;;;;;4973602;28;19913;-60
2021/12/12 11:10:33;;;;;;;;;;;10.70;50.40;;;;;;4979077;28;20388;-62
2021/12/12 11:13:10;;;;;;;;;;;10.80;50.10;;;;;;4991738;28;19918;-61
2021/12/12 11:15:35;;;;;;;;;;;10.70;48.50;;;;;;4991487;28;19953;-63
2021/12/12 11:18:03;;;;;;;;;;;10.60;48.50;;;;;;4991870;28;19906;-62
2021/12/12 11:20:29;;;;;;;;;;;10.50;48.40;;;;;;4991532;28;20421;-65
2021/12/12 11:22:57;;;;;;;;;;;10.60;47.90;;;;;;4989044;28;19945;-61
2021/12/12 11:25:27;;;;;;;;;;;10.60;48.00;;;;;;4990713;28;19906;-58
2021/12/12 11:28:05;;;;;;;;;;;10.60;47.30;;;;;;4993080;28;20342;-58
2021/12/12 11:30:34;;;;;;;;;;;10.80;48.20;;;;;;4975921;28;19913;-58
2021/12/12 11:33:01;;;;;;;;;;;10.80;47.50;;;;;;4993511;28;19910;-58
2021/12/12 11:35:27;;;;;;;;;;;10.90;48.40;;;;;;4993389;28;19909;-58
2021/12/12 11:37:55;;;;;;;;;;;10.70;49.20;;;;;;4997298;28;20005;-60
2021/12/12 11:40:42;;;;;;;;;;;10.80;49.90;;;;;;4993212;28;19956;-59
2021/12/12 11:43:17;;;;;;;;;;;10.90;50.00;;;;;;4996168;28;19909;-62
2021/12/12 11:45:44;;;;;;;;;;;11.00;49.70;;;;;;4996441;28;20391;-62
2021/12/12 11:48:28;;;;;;;;;;;11.10;49.50;;;;;;4995930;28;19917;-59
2021/12/12 11:51:12;;;;;;;;;;;11.10;49.40;;;;;;4995528;28;20006;-62
2021/12/12 11:53:42;;;;;;;;;;;11.10;50.10;;;;;;4996017;28;19906;-57
2021/12/12 11:56:11;;;;;;;;;;;11.10;50.30;;;;;;4996119;28;19970;-57
2021/12/12 11:58:44;;;;;;;;;;;11.20;49.70;;;;;;4997621;28;19910;-60
2021/12/12 12:01:22;;;;;;;;;;;10.70;49.40;;;;;;4996951;28;19906;-55
2021/12/12 12:03:57;;;;;;;;;;;10.70;47.70;;;;;;4997923;28;19910;-58
2021/12/12 12:06:28;;;;;;;;;;;10.50;47.60;;;;;;4996783;28;20417;-55
2021/12/12 12:08:55;;;;;;;;;;;10.60;47.90;;;;;;4997257;28;19988;-58
2021/12/12 12:11:39;;;;;;;;;;;10.80;47.60;;;;;;4996633;28;20436;-60
2021/12/12 12:14:07;;;;;;;;;;;10.80;47.10;;;;;;4996686;28;20350;-57
2021/12/12 12:16:48;;;;;;;;;;;10.90;47.40;;;;;;4995942;28;20205;-57
2021/12/12 12:19:37;;;;;;;;;;;10.80;48.30;;;;;;4976209;28;19920;-55
2021/12/12 12:22:03;;;;;;;;;;;10.80;48.70;;;;;;4943586;28;19997;-54
2021/12/12 12:24:40;;;;;;;;;;;10.90;48.70;;;;;;4976299;28;19953;-56
2021/12/12 12:27:08;;;;;;;;;;;10.90;48.80;;;;;;4976689;28;20005;-58
2021/12/12 12:29:54;;;;;;;;;;;10.70;47.30;;;;;;4976623;28;19965;-60
2021/12/12 12:32:38;;;;;;;;;;;10.80;47.80;;;;;;4981071;28;19913;-61
2021/12/12 12:35:19;;;;;;;;;;;10.70;48.60;;;;;;4990068;28;19910;-61
2021/12/12 12:37:53;;;;;;;;;;;10.90;48.20;;;;;;4993197;28;19913;-58
2021/12/12 12:40:38;;;;;;;;;;;10.90;48.30;;;;;;4990917;28;19910;-59
2021/12/12 12:43:22;;;;;;;;;;;11.10;48.20;;;;;;4977086;28;19906;-59
2021/12/12 12:45:47;;;;;;;;;;;11.20;48.00;;;;;;4976726;28;19906;-58
2021/12/12 12:48:12;;;;;;;;;;;11.30;48.10;;;;;;4976185;28;20358;-59
2021/12/12 12:50:50;;;;;;;;;;;11.30;48.70;;;;;;4976183;28;19914;-63
2021/12/12 12:53:34;;;;;;;;;;;11.30;49.20;;;;;;4976213;28;19910;-61
2021/12/12 12:56:06;;;;;;;;;;;11.20;49.00;;;;;;4976270;28;19906;-60
2021/12/12 12:58:50;;;;;;;;;;;11.10;49.40;;;;;;4976117;28;20358;-60
2021/12/12 13:01:29;;;;;;;;;;;11.10;49.90;;;;;;4983932;28;19912;-60
2021/12/12 13:04:01;;;;;;;;;;;11.10;50.00;;;;;;4988982;28;19906;-60
2021/12/12 13:06:45;;;;;;;;;;;11.10;49.70;;;;;;4979459;28;19948;-63
2021/12/12 13:09:16;;;;;;;;;;;11.00;50.80;;;;;;4961628;28;19910;-62
2021/12/12 13:11:53;;;;;;;;;;;10.80;51.60;;;;;;4978504;28;19922;-61
2021/12/12 13:14:41;;;;;;;;;;;10.70;52.40;;;;;;4976928;28;20341;-62
2021/12/12 13:17:31;;;;;;;;;;;10.60;52.00;;;;;;4976121;28;20009;-61
2021/12/12 13:20:16;;;;;;;;;;;10.50;53.10;;;;;;4976344;28;19961;-61
2021/12/12 13:22:54;;;;;;;;;;;10.40;54.30;;;;;;4975407;28;19906;-60
2021/12/12 13:25:26;;;;;;;;;;;10.40;54.20;;;;;;4975507;28;20299;-61
2021/12/12 13:30:47;;;;;;;;;;;10.20;53.60;;;;;;4974892;28;19985;-60
2021/12/12 13:33:31;;;;;;;;;;;10.10;53.60;;;;;;4975096;28;19997;-57
2021/12/12 13:36:00;;;;;;;;;;;10.10;53.30;;;;;;4957494;28;20269;-57
2021/12/12 13:38:31;;;;;;;;;;;10.10;54.80;;;;;;4977365;28;19906;-58
2021/12/12 13:41:08;;;;;;;;;;;10.00;55.10;;;;;;4974734;28;19917;-60
2021/12/12 13:43:56;;;;;;;;;;;9.90;55.50;;;;;;4974538;28;19928;-56
2021/12/12 13:46:33;;;;;;;;;;;9.90;56.00;;;;;;4947102;28;19922;-56
2021/12/12 13:49:11;;;;;;;;;;;9.90;56.40;;;;;;4973839;28;20350;-60
2021/12/12 13:51:44;;;;;;;;;;;9.80;56.50;;;;;;4974699;28;19925;-59
2021/12/12 13:54:13;;;;;;;;;;;9.80;56.90;;;;;;4974900;28;20346;-56
2021/12/12 13:56:38;;;;;;;;;;;9.80;56.90;;;;;;4974666;28;19917;-59
2021/12/12 13:59:22;;;;;;;;;;;9.70;57.10;;;;;;4974634;28;19906;-61
2021/12/12 14:01:48;;;;;;;;;;;9.60;56.60;;;;;;4980382;28;19905;-59
2021/12/12 14:04:31;;;;;;;;;;;9.50;56.80;;;;;;4980197;28;19985;-57
2021/12/12 14:06:57;;;;;;;;;;;9.60;57.00;;;;;;4975949;28;19913;-60
2021/12/12 14:09:25;;;;;;;;;;;9.60;56.60;;;;;;4974454;28;19906;-59
2021/12/12 14:11:54;;;;;;;;;;;9.50;57.70;;;;;;4974378;28;19992;-58
2021/12/12 14:14:40;;;;;;;;;;;9.40;57.60;;;;;;4974346;28;20333;-58
2021/12/12 14:17:13;;;;;;;;;;;9.40;56.40;;;;;;4973706;28;19912;-58
2021/12/12 14:19:44;;;;;;;;;;;9.30;56.90;;;;;;4974262;28;19910;-57
2021/12/12 14:22:09;;;;;;;;;;;9.30;58.10;;;;;;4976441;28;19910;-58
2021/12/12 14:24:36;;;;;;;;;;;9.20;57.90;;;;;;4960255;28;19917;-60
2021/12/12 14:27:03;;;;;;;;;;;9.30;57.90;;;;;;4978564;28;19940;-64
2021/12/12 14:29:30;;;;;;;;;;;9.20;58.10;;;;;;4975969;28;19917;-60
2021/12/12 14:32:02;;;;;;;;;;;9.10;58.70;;;;;;4978449;28;19918;-61
2021/12/12 14:34:46;;;;;;;;;;;9.10;59.10;;;;;;4975088;28;19979;-63
2021/12/12 14:37:17;;;;;;;;;;;9.00;59.20;;;;;;4975116;28;19914;-60
2021/12/12 14:39:43;;;;;;;;;;;8.90;59.50;;;;;;4975528;28;19906;-60
2021/12/12 14:42:22;;;;;;;;;;;8.80;59.40;;;;;;4974706;28;19928;-60
2021/12/12 14:44:50;;;;;;;;;;;8.80;59.20;;;;;;4972917;28;19906;-60
2021/12/12 14:47:20;;;;;;;;;;;8.70;59.20;;;;;;4974788;28;19962;-59
2021/12/12 14:49:56;;;;;;;;;;;8.60;59.80;;;;;;4974218;28;20398;-61
2021/12/12 14:52:22;;;;;;;;;;;8.50;59.90;;;;;;4972910;28;19914;-59
2021/12/12 14:54:57;;;;;;;;;;;8.60;59.10;;;;;;4976009;28;19912;-61
2021/12/12 14:57:27;;;;;;;;;;;8.60;58.10;;;;;;4976624;28;20314;-60
2021/12/12 14:59:56;;;;;;;;;;;8.60;58.70;;;;;;4979897;28;19906;-60
2021/12/12 15:02:24;;;;;;;;;;;8.50;59.20;;;;;;4972629;28;19906;-61
2021/12/12 15:04:52;;;;;;;;;;;8.50;59.80;;;;;;4973021;28;20052;-59
2021/12/12 15:07:19;;;;;;;;;;;8.30;60.40;;;;;;4971647;28;19976;-60